Time,TemperatureF,DewpointF,PressureIn,WindDirection,WindDirectionDegrees,WindSpeedMPH,WindSpeedGustMPH,Humidity,HourlyPrecipIn,Conditions,Clouds,dailyrainin,SoftwareType,DateUTC
2013-08-25 00:11:00,55.2,54.6,30.20,SSE,157,0.0,-999.0,98,-99.99,,,0.00,Acu-Link.com,2013-08-25 04:11:00,
2013-08-25 00:26:00,54.7,54.1,30.21,South,180,0.0,-999.0,98,-99.99,,,0.00,Acu-Link.com,2013-08-25 04:26:00,
2013-08-25 00:41:00,54.7,54.1,30.21,South,180,0.0,-999.0,98,-99.99,,,0.00,Acu-Link.com,2013-08-25 04:41:00,
2013-08-25 00:56:00,54.0,53.4,30.21,South,180,0.0,-999.0,98,-99.99,,,0.00,Acu-Link.com,2013-08-25 04:56:00,
2013-08-25 01:11:00,53.6,53.0,30.21,WNW,292,0.0,-999.0,98,-99.99,,,0.00,Acu-Link.com,2013-08-25 05:11:00,
2013-08-25 01:26:00,53.8,53.2,30.21,SSW,202,0.0,-999.0,98,-99.99,,,0.00,Acu-Link.com,2013-08-25 05:26:00,
2013-08-25 01:42:00,53.4,52.8,30.22,SSW,202,0.0,-999.0,98,-99.99,,,0.00,Acu-Link.com,2013-08-25 05:42:00,
2013-08-25 01:57:00,53.2,52.6,30.22,South,180,0.0,-999.0,98,-99.99,,,0.00,Acu-Link.com,2013-08-25 05:57:00,
2013-08-25 02:12:00,52.7,52.2,30.21,ESE,112,0.0,-999.0,98,-99.99,,,0.00,Acu-Link.com,2013-08-25 06:12:00,
2013-08-25 02:27:00,52.7,52.2,30.22,ESE,112,0.0,-999.0,98,-99.99,,,0.00,Acu-Link.com,2013-08-25 06:27:00,
2013-08-25 02:42:00,52.3,51.8,30.22,NW,315,0.0,-999.0,98,-99.99,,,0.00,Acu-Link.com,2013-08-25 06:42:00,
2013-08-25 02:57:00,52.2,51.7,30.22,East,90,0.0,-999.0,98,-99.99,,,0.00,Acu-Link.com,2013-08-25 06:57:00,
2013-08-25 03:12:00,52.0,51.5,30.22,WSW,247,0.0,-999.0,98,-99.99,,,0.00,Acu-Link.com,2013-08-25 07:12:00,
2013-08-25 03:27:00,51.6,51.1,30.22,WSW,247,0.0,-999.0,98,-99.99,,,0.00,Acu-Link.com,2013-08-25 07:27:00,
2013-08-25 03:42:00,51.4,50.9,30.22,SSE,157,0.0,-999.0,98,-99.99,,,0.00,Acu-Link.com,2013-08-25 07:42:00,
2013-08-25 03:58:00,51.1,50.6,30.23,South,180,0.0,-999.0,98,-99.99,,,0.00,Acu-Link.com,2013-08-25 07:58:00,
2013-08-25 04:13:00,51.4,50.9,30.23,SSE,157,0.0,-999.0,98,-99.99,,,0.00,Acu-Link.com,2013-08-25 08:13:00,
2013-08-25 04:28:00,51.1,50.6,30.24,SSW,202,0.0,-999.0,98,-99.99,,,0.00,Acu-Link.com,2013-08-25 08:28:00,
2013-08-25 04:44:00,50.7,50.2,30.24,SSW,202,0.0,-999.0,98,-99.99,,,0.00,Acu-Link.com,2013-08-25 08:44:00,
2013-08-25 04:59:00,50.4,49.9,30.24,South,180,0.0,-999.0,98,-99.99,,,0.00,Acu-Link.com,2013-08-25 08:59:00,
2013-08-25 05:14:00,50.4,49.9,30.24,South,180,0.0,-999.0,98,-99.99,,,0.00,Acu-Link.com,2013-08-25 09:14:00,
2013-08-25 05:29:00,52.9,52.4,30.26,WNW,292,0.0,-999.0,98,-99.99,,,0.00,Acu-Link.com,2013-08-25 09:29:00,
2013-08-25 05:44:00,53.4,52.8,30.26,SW,225,0.0,-999.0,98,-99.99,,,0.00,Acu-Link.com,2013-08-25 09:44:00,
2013-08-25 06:00:00,54.0,53.4,30.26,West,270,0.0,-999.0,98,-99.99,,,0.00,Acu-Link.com,2013-08-25 10:00:00,
2013-08-25 06:15:00,54.0,53.4,30.27,West,270,0.0,-999.0,98,-99.99,,,0.00,Acu-Link.com,2013-08-25 10:15:00,
2013-08-25 06:30:00,54.0,53.4,30.28,West,270,0.0,-999.0,98,-99.99,,,0.00,Acu-Link.com,2013-08-25 10:30:00,
2013-08-25 06:45:00,54.1,53.5,30.28,SSE,157,0.0,-999.0,98,-99.99,,,0.00,Acu-Link.com,2013-08-25 10:45:00,
2013-08-25 07:01:00,54.1,53.5,30.29,SSE,157,0.0,-999.0,98,-99.99,,,0.00,Acu-Link.com,2013-08-25 11:01:00,
2013-08-25 07:16:00,54.3,53.7,30.29,SSW,202,0.0,-999.0,98,-99.99,,,0.00,Acu-Link.com,2013-08-25 11:16:00,
2013-08-25 07:32:00,54.5,53.9,30.29,East,90,0.0,-999.0,98,-99.99,,,0.00,Acu-Link.com,2013-08-25 11:32:00,
2013-08-25 07:47:00,54.9,54.3,30.29,SE,135,2.7,-999.0,98,-99.99,,,0.00,Acu-Link.com,2013-08-25 11:47:00,
2013-08-25 08:03:00,55.2,54.6,30.29,SSE,157,0.0,-999.0,98,-99.99,,,0.00,Acu-Link.com,2013-08-25 12:03:00,
2013-08-25 08:18:00,56.3,55.7,30.29,WSW,247,1.7,-999.0,98,-99.99,,,0.00,Acu-Link.com,2013-08-25 12:18:00,
2013-08-25 08:33:00,56.7,56.1,30.30,SE,135,1.7,-999.0,98,-99.99,,,0.00,Acu-Link.com,2013-08-25 12:33:00,
2013-08-25 08:48:00,58.1,57.5,30.30,NNE,22,2.2,-999.0,98,-99.99,,,0.00,Acu-Link.com,2013-08-25 12:48:00,
2013-08-25 09:03:00,60.3,59.7,30.29,ENE,67,2.7,-999.0,98,-99.99,,,0.00,Acu-Link.com,2013-08-25 13:03:00,
2013-08-25 09:18:00,61.3,60.7,30.29,WNW,292,2.2,-999.0,98,-99.99,,,0.00,Acu-Link.com,2013-08-25 13:18:00,
2013-08-25 09:33:00,62.2,60.1,30.28,South,180,2.2,-999.0,93,-99.99,,,0.00,Acu-Link.com,2013-08-25 13:33:00,
2013-08-25 09:48:00,63.7,61.6,30.27,South,180,2.7,-999.0,93,-99.99,,,0.00,Acu-Link.com,2013-08-25 13:48:00,
2013-08-25 10:04:00,64.8,61.8,30.26,SSE,157,0.0,-999.0,90,-99.99,,,0.00,Acu-Link.com,2013-08-25 14:04:00,
2013-08-25 10:19:00,66.6,62.6,30.26,South,180,2.7,-999.0,87,-99.99,,,0.00,Acu-Link.com,2013-08-25 14:19:00,
2013-08-25 10:34:00,67.5,63.2,30.26,South,180,1.1,-999.0,86,-99.99,,,0.00,Acu-Link.com,2013-08-25 14:34:00,
2013-08-25 10:49:00,70.2,64.4,30.26,SE,135,2.7,-999.0,82,-99.99,,,0.00,Acu-Link.com,2013-08-25 14:49:00,
2013-08-25 11:04:00,72.7,66.2,30.25,SSE,157,2.7,-999.0,80,-99.99,,,0.00,Acu-Link.com,2013-08-25 15:04:00,
2013-08-25 11:19:00,73.4,65.7,30.25,SSE,157,2.7,-999.0,77,-99.99,,,0.00,Acu-Link.com,2013-08-25 15:19:00,
2013-08-25 11:34:00,74.7,66.6,30.24,NNE,22,1.7,-999.0,76,-99.99,,,0.00,Acu-Link.com,2013-08-25 15:34:00,
2013-08-25 11:49:00,76.5,66.4,30.24,NE,45,1.7,-999.0,71,-99.99,,,0.00,Acu-Link.com,2013-08-25 15:49:00,
2013-08-25 12:04:00,77.7,67.1,30.23,South,180,2.7,-999.0,70,-99.99,,,0.00,Acu-Link.com,2013-08-25 16:04:00,
2013-08-25 12:19:00,79.7,67.8,30.23,South,180,1.7,-999.0,67,-99.99,,,0.00,Acu-Link.com,2013-08-25 16:19:00,
2013-08-25 12:35:00,80.6,67.3,30.23,SSE,157,2.7,-999.0,64,-99.99,,,0.00,Acu-Link.com,2013-08-25 16:35:00,
2013-08-25 12:50:00,82.0,66.7,30.22,SW,225,2.2,-999.0,60,-99.99,,,0.00,Acu-Link.com,2013-08-25 16:50:00,
2013-08-25 13:05:00,83.3,66.4,30.21,WSW,247,3.2,-999.0,57,-99.99,,,0.00,Acu-Link.com,2013-08-25 17:05:00,
2013-08-25 13:20:00,82.2,63.3,30.19,South,180,4.2,-999.0,53,-99.99,,,0.00,Acu-Link.com,2013-08-25 17:20:00,
2013-08-25 13:35:00,83.3,63.3,30.18,SW,225,4.2,-999.0,51,-99.99,,,0.00,Acu-Link.com,2013-08-25 17:35:00,
2013-08-25 13:50:00,83.1,63.1,30.19,West,270,2.2,-999.0,51,-99.99,,,0.00,Acu-Link.com,2013-08-25 17:50:00,
2013-08-25 14:07:00,83.3,63.3,30.18,SW,225,4.2,-999.0,51,-99.99,,,0.00,Acu-Link.com,2013-08-25 18:07:00,
2013-08-25 14:25:00,84.0,65.0,30.17,SW,225,3.7,-999.0,53,-99.99,,,0.00,Acu-Link.com,2013-08-25 18:25:00,
2013-08-25 14:52:00,84.4,64.8,30.17,SSW,202,2.7,-999.0,52,-99.99,,,0.00,Acu-Link.com,2013-08-25 18:52:00,
2013-08-25 15:07:00,84.4,64.8,30.17,NNW,337,4.7,-999.0,52,-99.99,,,0.00,Acu-Link.com,2013-08-25 19:07:00,
2013-08-25 15:22:00,83.5,64.0,30.16,West,270,4.2,-999.0,52,-99.99,,,0.00,Acu-Link.com,2013-08-25 19:22:00,
2013-08-25 15:37:00,83.8,64.8,30.15,SSW,202,2.7,-999.0,53,-99.99,,,0.00,Acu-Link.com,2013-08-25 19:37:00,
2013-08-25 15:53:00,84.9,64.7,30.14,East,90,1.7,-999.0,51,-99.99,,,0.00,Acu-Link.com,2013-08-25 19:53:00,
2013-08-25 16:08:00,83.8,63.7,30.13,SSW,202,1.7,-999.0,51,-99.99,,,0.00,Acu-Link.com,2013-08-25 20:08:00,
2013-08-25 16:23:00,83.7,63.6,30.13,South,180,0.0,-999.0,51,-99.99,,,0.00,Acu-Link.com,2013-08-25 20:23:00,
2013-08-25 16:38:00,83.5,63.4,30.11,SE,135,2.7,-999.0,51,-99.99,,,0.00,Acu-Link.com,2013-08-25 20:38:00,
2013-08-25 16:53:00,83.7,64.7,30.10,South,180,2.7,-999.0,53,-99.99,,,0.00,Acu-Link.com,2013-08-25 20:53:00,
2013-08-25 17:08:00,84.0,63.9,30.10,ESE,112,2.7,-999.0,51,-99.99,,,0.00,Acu-Link.com,2013-08-25 21:08:00,
2013-08-25 17:26:00,84.0,64.5,30.10,SSE,157,0.0,-999.0,52,-99.99,,,0.00,Acu-Link.com,2013-08-25 21:26:00,
2013-08-25 17:45:00,84.6,65.6,30.10,WSW,247,2.7,-999.0,53,-99.99,,,0.00,Acu-Link.com,2013-08-25 21:45:00,
2013-08-25 18:10:00,84.7,65.6,30.09,SE,135,3.2,-999.0,53,-99.99,,,0.00,Acu-Link.com,2013-08-25 22:10:00,
2013-08-25 20:45:00,70.5,64.0,30.08,North,0,0.0,-999.0,80,-99.99,,,0.00,Acu-Link.com,2013-08-26 00:45:00,
2013-08-25 21:05:00,69.4,64.3,30.08,South,180,0.0,-999.0,84,-99.99,,,0.00,Acu-Link.com,2013-08-26 01:05:00,
2013-08-25 21:20:00,68.2,63.5,30.09,ESE,112,0.0,-999.0,85,-99.99,,,0.00,Acu-Link.com,2013-08-26 01:20:00,
2013-08-25 21:35:00,67.5,63.5,30.10,WNW,292,0.0,-999.0,87,-99.99,,,0.00,Acu-Link.com,2013-08-26 01:35:00,
2013-08-25 21:51:00,66.7,63.4,30.10,ESE,112,0.0,-999.0,89,-99.99,,,0.00,Acu-Link.com,2013-08-26 01:51:00,
2013-08-25 22:06:00,65.8,63.7,30.09,NNW,337,0.0,-999.0,93,-99.99,,,0.00,Acu-Link.com,2013-08-26 02:06:00,
2013-08-25 22:21:00,64.8,62.4,30.09,WSW,247,0.0,-999.0,92,-99.99,,,0.00,Acu-Link.com,2013-08-26 02:21:00,
2013-08-25 22:36:00,64.0,61.9,30.09,WSW,247,0.0,-999.0,93,-99.99,,,0.00,Acu-Link.com,2013-08-26 02:36:00,
2013-08-25 22:52:00,63.9,63.3,30.10,SSE,157,0.0,-999.0,98,-99.99,,,0.00,Acu-Link.com,2013-08-26 02:52:00,
2013-08-25 23:07:00,63.7,63.1,30.09,SSW,202,0.0,-999.0,98,-99.99,,,0.00,Acu-Link.com,2013-08-26 03:07:00,
2013-08-25 23:22:00,64.2,63.6,30.09,ESE,112,0.0,-999.0,98,-99.99,,,0.00,Acu-Link.com,2013-08-26 03:22:00,
2013-08-25 23:37:00,64.0,63.4,30.08,East,90,0.0,-999.0,98,-99.99,,,0.00,Acu-Link.com,2013-08-26 03:37:00,
2013-08-25 23:52:00,63.9,63.3,30.08,East,90,0.0,-999.0,98,-99.99,,,0.00,Acu-Link.com,2013-08-26 03:52:00,